sensor_id;sensor_type;location;lat;lon;timestamp;P1;durP1;ratioP1;P2;durP2;ratioP2
32106;SDS011;18622;51.998;10.440;2023-08-21T03:35:02;11.17;;;3.37;;
32106;SDS011;18622;51.998;10.440;2023-08-21T03:37:30;7.53;;;3.40;;
32106;SDS011;18622;51.998;10.440;2023-08-21T03:39:57;12.10;;;3.00;;
32106;SDS011;18622;51.998;10.440;2023-08-21T03:42:25;4.67;;;2.90;;
32106;SDS011;18622;51.998;10.440;2023-08-21T03:44:53;5.60;;;2.50;;
32106;SDS011;18622;51.998;10.440;2023-08-21T03:47:21;14.87;;;3.07;;
32106;SDS011;18622;51.998;10.440;2023-08-21T03:49:49;7.77;;;2.80;;
32106;SDS011;18622;51.998;10.440;2023-08-21T03:52:16;8.67;;;2.87;;
32106;SDS011;18622;51.998;10.440;2023-08-21T03:54:44;8.27;;;3.07;;
32106;SDS011;18622;51.998;10.440;2023-08-21T03:57:12;11.53;;;4.60;;
32106;SDS011;18622;51.998;10.440;2023-08-21T03:59:40;5.87;;;3.13;;
32106;SDS011;18622;51.998;10.440;2023-08-21T04:02:08;14.50;;;3.60;;
32106;SDS011;18622;51.998;10.440;2023-08-21T04:04:36;11.50;;;3.10;;
32106;SDS011;18622;51.998;10.440;2023-08-21T04:07:03;7.53;;;3.30;;
32106;SDS011;18622;51.998;10.440;2023-08-21T04:09:32;9.98;;;2.83;;
32106;SDS011;18622;51.998;10.440;2023-08-21T04:11:59;6.40;;;3.60;;
32106;SDS011;18622;51.998;10.440;2023-08-21T04:14:27;9.03;;;3.20;;
32106;SDS011;18622;51.998;10.440;2023-08-21T04:16:55;8.47;;;2.80;;
32106;SDS011;18622;51.998;10.440;2023-08-21T04:19:23;6.60;;;3.17;;
32106;SDS011;18622;51.998;10.440;2023-08-21T04:21:52;8.10;;;2.40;;
32106;SDS011;18622;51.998;10.440;2023-08-21T04:24:20;8.40;;;2.80;;
32106;SDS011;18622;51.998;10.440;2023-08-21T04:26:48;4.13;;;2.37;;
32106;SDS011;18622;51.998;10.440;2023-08-21T04:29:16;7.07;;;2.30;;
32106;SDS011;18622;51.998;10.440;2023-08-21T04:31:43;4.10;;;2.40;;
32106;SDS011;18622;51.998;10.440;2023-08-21T04:34:11;6.50;;;2.30;;
32106;SDS011;18622;51.998;10.440;2023-08-21T04:36:39;7.67;;;2.60;;
32106;SDS011;18622;51.998;10.440;2023-08-21T04:39:07;7.30;;;2.40;;
32106;SDS011;18622;51.998;10.440;2023-08-21T04:41:35;8.70;;;2.73;;
32106;SDS011;18622;51.998;10.440;2023-08-21T04:44:02;8.93;;;2.50;;
32106;SDS011;18622;51.998;10.440;2023-08-21T04:46:30;10.90;;;2.80;;
32106;SDS011;18622;51.998;10.440;2023-08-21T04:48:58;4.70;;;2.43;;
32106;SDS011;18622;51.998;10.440;2023-08-21T04:51:26;9.23;;;2.80;;
32106;SDS011;18622;51.998;10.440;2023-08-21T04:53:54;5.53;;;2.90;;
32106;SDS011;18622;51.998;10.440;2023-08-21T04:56:21;7.17;;;2.40;;
32106;SDS011;18622;51.998;10.440;2023-08-21T04:58:49;8.07;;;2.70;;
32106;SDS011;18622;51.998;10.440;2023-08-21T05:01:17;5.27;;;2.80;;
32106;SDS011;18622;51.998;10.440;2023-08-21T05:03:45;6.27;;;2.47;;
32106;SDS011;18622;51.998;10.440;2023-08-21T05:06:13;9.33;;;3.23;;
32106;SDS011;18622;51.998;10.440;2023-08-21T05:08:41;5.70;;;2.70;;
32106;SDS011;18622;51.998;10.440;2023-08-21T05:11:09;7.03;;;2.20;;
32106;SDS011;18622;51.998;10.440;2023-08-21T05:13:36;7.40;;;2.63;;
32106;SDS011;18622;51.998;10.440;2023-08-21T05:16:04;10.40;;;2.73;;
32106;SDS011;18622;51.998;10.440;2023-08-21T05:18:32;6.53;;;2.37;;
32106;SDS011;18622;51.998;10.440;2023-08-21T05:21:00;6.83;;;2.40;;
32106;SDS011;18622;51.998;10.440;2023-08-21T05:23:28;4.70;;;2.33;;
32106;SDS011;18622;51.998;10.440;2023-08-21T05:25:55;6.93;;;2.57;;
32106;SDS011;18622;51.998;10.440;2023-08-21T05:28:23;6.60;;;2.57;;
32106;SDS011;18622;51.998;10.440;2023-08-21T05:30:51;7.37;;;2.60;;
32106;SDS011;18622;51.998;10.440;2023-08-21T05:33:19;7.50;;;2.30;;
32106;SDS011;18622;51.998;10.440;2023-08-21T05:35:47;6.40;;;2.80;;
32106;SDS011;18622;51.998;10.440;2023-08-21T05:38:14;7.37;;;2.40;;
32106;SDS011;18622;51.998;10.440;2023-08-21T05:40:42;6.80;;;2.33;;
32106;SDS011;18622;51.998;10.440;2023-08-21T05:43:10;13.70;;;2.93;;
32106;SDS011;18622;51.998;10.440;2023-08-21T05:45:38;7.10;;;2.33;;
32106;SDS011;18622;51.998;10.440;2023-08-21T05:48:06;12.63;;;2.83;;
32106;SDS011;18622;51.998;10.440;2023-08-21T05:50:33;12.50;;;2.70;;
32106;SDS011;18622;51.998;10.440;2023-08-21T05:53:07;7.47;;;2.70;;
32106;SDS011;18622;51.998;10.440;2023-08-21T05:55:32;8.03;;;2.50;;
32106;SDS011;18622;51.998;10.440;2023-08-21T05:58:00;6.23;;;3.07;;
32106;SDS011;18622;51.998;10.440;2023-08-21T06:00:28;8.00;;;2.70;;
32106;SDS011;18622;51.998;10.440;2023-08-21T06:02:55;3.57;;;2.03;;
32106;SDS011;18622;51.998;10.440;2023-08-21T06:05:23;7.77;;;2.10;;
32106;SDS011;18622;51.998;10.440;2023-08-21T06:07:51;11.30;;;2.30;;
32106;SDS011;18622;51.998;10.440;2023-08-21T06:10:19;9.37;;;3.10;;
32106;SDS011;18622;51.998;10.440;2023-08-21T06:12:47;3.67;;;1.90;;
32106;SDS011;18622;51.998;10.440;2023-08-21T06:15:15;6.20;;;2.70;;
32106;SDS011;18622;51.998;10.440;2023-08-21T06:17:43;7.10;;;2.83;;
32106;SDS011;18622;51.998;10.440;2023-08-21T06:20:11;10.00;;;3.00;;
32106;SDS011;18622;51.998;10.440;2023-08-21T06:22:39;12.88;;;3.85;;
32106;SDS011;18622;51.998;10.440;2023-08-21T06:25:08;11.13;;;3.23;;
32106;SDS011;18622;51.998;10.440;2023-08-21T06:27:35;5.87;;;3.00;;
32106;SDS011;18622;51.998;10.440;2023-08-21T06:30:03;6.33;;;3.13;;
32106;SDS011;18622;51.998;10.440;2023-08-21T06:32:32;11.97;;;3.07;;
32106;SDS011;18622;51.998;10.440;2023-08-21T06:34:59;7.47;;;3.30;;
32106;SDS011;18622;51.998;10.440;2023-08-21T06:37:27;5.43;;;2.83;;
32106;SDS011;18622;51.998;10.440;2023-08-21T06:39:55;10.80;;;3.20;;
32106;SDS011;18622;51.998;10.440;2023-08-21T06:42:23;8.57;;;2.87;;
32106;SDS011;18622;51.998;10.440;2023-08-21T06:44:50;8.30;;;3.43;;
32106;SDS011;18622;51.998;10.440;2023-08-21T06:47:18;5.90;;;3.20;;
32106;SDS011;18622;51.998;10.440;2023-08-21T06:49:46;7.17;;;3.20;;
32106;SDS011;18622;51.998;10.440;2023-08-21T06:52:14;5.20;;;2.93;;
32106;SDS011;18622;51.998;10.440;2023-08-21T06:54:42;9.70;;;3.37;;
32106;SDS011;18622;51.998;10.440;2023-08-21T06:57:09;8.97;;;3.10;;
32106;SDS011;18622;51.998;10.440;2023-08-21T06:59:37;6.80;;;3.13;;
32106;SDS011;18622;51.998;10.440;2023-08-21T07:02:05;7.90;;;3.12;;
32106;SDS011;18622;51.998;10.440;2023-08-21T07:04:33;8.33;;;3.30;;
32106;SDS011;18622;51.998;10.440;2023-08-21T07:07:01;7.97;;;3.93;;
32106;SDS011;18622;51.998;10.440;2023-08-21T07:09:29;8.77;;;3.30;;
32106;SDS011;18622;51.998;10.440;2023-08-21T07:11:57;10.30;;;2.73;;
32106;SDS011;18622;51.998;10.440;2023-08-21T07:14:24;7.77;;;3.80;;
32106;SDS011;18622;51.998;10.440;2023-08-21T07:16:52;10.10;;;3.67;;
32106;SDS011;18622;51.998;10.440;2023-08-21T07:19:20;7.73;;;3.60;;
32106;SDS011;18622;51.998;10.440;2023-08-21T07:21:48;7.90;;;3.57;;
32106;SDS011;18622;51.998;10.440;2023-08-21T07:24:16;6.43;;;3.17;;
32106;SDS011;18622;51.998;10.440;2023-08-21T07:26:44;10.57;;;3.23;;
32106;SDS011;18622;51.998;10.440;2023-08-21T07:29:12;6.37;;;3.67;;
32106;SDS011;18622;51.998;10.440;2023-08-21T07:31:40;8.70;;;3.17;;
32106;SDS011;18622;51.998;10.440;2023-08-21T07:34:08;11.33;;;3.40;;
32106;SDS011;18622;51.998;10.440;2023-08-21T07:36:36;5.87;;;2.60;;
32106;SDS011;18622;51.998;10.440;2023-08-21T07:39:03;8.57;;;3.40;;
32106;SDS011;18622;51.998;10.440;2023-08-21T07:41:32;9.23;;;3.67;;
32106;SDS011;18622;51.998;10.440;2023-08-21T07:44:00;5.83;;;2.60;;
32106;SDS011;18622;51.998;10.440;2023-08-21T07:46:28;5.35;;;2.12;;
32106;SDS011;18622;51.998;10.440;2023-08-21T07:48:56;7.00;;;2.20;;
32106;SDS011;18622;51.998;10.440;2023-08-21T07:51:24;5.63;;;1.93;;
32106;SDS011;18622;51.998;10.440;2023-08-21T07:53:52;3.70;;;2.17;;
32106;SDS011;18622;51.998;10.440;2023-08-21T07:56:19;7.17;;;2.03;;
32106;SDS011;18622;51.998;10.440;2023-08-21T07:58:47;5.13;;;2.00;;
32106;SDS011;18622;51.998;10.440;2023-08-21T08:01:16;7.30;;;2.87;;
32106;SDS011;18622;51.998;10.440;2023-08-21T08:03:43;4.40;;;2.50;;
32106;SDS011;18622;51.998;10.440;2023-08-21T08:06:11;6.83;;;1.87;;
32106;SDS011;18622;51.998;10.440;2023-08-21T08:08:39;5.05;;;1.60;;
32106;SDS011;18622;51.998;10.440;2023-08-21T08:11:07;8.37;;;2.00;;
32106;SDS011;18622;51.998;10.440;2023-08-21T08:13:35;5.23;;;1.77;;
32106;SDS011;18622;51.998;10.440;2023-08-21T08:16:03;6.77;;;1.73;;
32106;SDS011;18622;51.998;10.440;2023-08-21T08:18:30;4.87;;;2.43;;
32106;SDS011;18622;51.998;10.440;2023-08-21T08:20:58;3.40;;;2.20;;
32106;SDS011;18622;51.998;10.440;2023-08-21T08:23:26;7.80;;;2.67;;
32106;SDS011;18622;51.998;10.440;2023-08-21T08:25:54;12.10;;;2.57;;
32106;SDS011;18622;51.998;10.440;2023-08-21T08:28:22;9.93;;;3.07;;
32106;SDS011;18622;51.998;10.440;2023-08-21T08:30:50;5.67;;;2.37;;
32106;SDS011;18622;51.998;10.440;2023-08-21T08:33:17;7.37;;;2.50;;
32106;SDS011;18622;51.998;10.440;2023-08-21T08:35:45;8.80;;;2.40;;
32106;SDS011;18622;51.998;10.440;2023-08-21T08:38:13;6.67;;;2.53;;
32106;SDS011;18622;51.998;10.440;2023-08-21T08:40:47;10.23;;;3.13;;
32106;SDS011;18622;51.998;10.440;2023-08-21T08:43:12;7.97;;;2.98;;
32106;SDS011;18622;51.998;10.440;2023-08-21T08:45:41;9.08;;;2.70;;
32106;SDS011;18622;51.998;10.440;2023-08-21T08:48:10;8.13;;;2.10;;
32106;SDS011;18622;51.998;10.440;2023-08-21T08:53:07;11.08;;;3.05;;
32106;SDS011;18622;51.998;10.440;2023-08-21T08:55:35;11.25;;;2.58;;
32106;SDS011;18622;51.998;10.440;2023-08-21T08:58:03;9.23;;;2.20;;
32106;SDS011;18622;51.998;10.440;2023-08-21T09:00:31;9.40;;;2.77;;
32106;SDS011;18622;51.998;10.440;2023-08-21T09:02:59;11.73;;;2.70;;
32106;SDS011;18622;51.998;10.440;2023-08-21T09:05:27;7.53;;;2.33;;
32106;SDS011;18622;51.998;10.440;2023-08-21T09:08:09;10.60;;;2.50;;
32106;SDS011;18622;51.998;10.440;2023-08-21T09:10:37;6.67;;;2.40;;
32106;SDS011;18622;51.998;10.440;2023-08-21T09:13:25;8.28;;;2.55;;
32106;SDS011;18622;51.998;10.440;2023-08-21T09:15:44;6.77;;;2.83;;
32106;SDS011;18622;51.998;10.440;2023-08-21T09:18:13;8.00;;;2.63;;
32106;SDS011;18622;51.998;10.440;2023-08-21T09:20:42;8.33;;;2.15;;
32106;SDS011;18622;51.998;10.440;2023-08-21T09:23:14;12.37;;;1.97;;
32106;SDS011;18622;51.998;10.440;2023-08-21T09:25:53;5.77;;;1.90;;
32106;SDS011;18622;51.998;10.440;2023-08-21T09:28:22;10.03;;;2.60;;
32106;SDS011;18622;51.998;10.440;2023-08-21T09:30:51;7.33;;;1.82;;
32106;SDS011;18622;51.998;10.440;2023-08-21T09:33:21;3.83;;;1.90;;
32106;SDS011;18622;51.998;10.440;2023-08-21T09:38:20;4.55;;;1.80;;
32106;SDS011;18622;51.998;10.440;2023-08-21T09:40:52;5.80;;;1.87;;
32106;SDS011;18622;51.998;10.440;2023-08-21T09:43:21;3.35;;;1.67;;
32106;SDS011;18622;51.998;10.440;2023-08-21T09:45:51;12.40;;;2.20;;
32106;SDS011;18622;51.998;10.440;2023-08-21T09:48:21;4.62;;;1.98;;
32106;SDS011;18622;51.998;10.440;2023-08-21T09:50:55;4.42;;;1.57;;
32106;SDS011;18622;51.998;10.440;2023-08-21T09:53:24;6.30;;;2.20;;
32106;SDS011;18622;51.998;10.440;2023-08-21T09:55:53;7.33;;;2.17;;
32106;SDS011;18622;51.998;10.440;2023-08-21T09:58:22;6.13;;;2.03;;
32106;SDS011;18622;51.998;10.440;2023-08-21T10:00:51;5.60;;;1.90;;
32106;SDS011;18622;51.998;10.440;2023-08-21T10:03:21;8.23;;;2.25;;
32106;SDS011;18622;51.998;10.440;2023-08-21T10:05:50;5.50;;;2.05;;
32106;SDS011;18622;51.998;10.440;2023-08-21T10:08:21;5.75;;;1.77;;
32106;SDS011;18622;51.998;10.440;2023-08-21T10:10:50;4.60;;;1.92;;
32106;SDS011;18622;51.998;10.440;2023-08-21T10:13:18;7.13;;;2.67;;
32106;SDS011;18622;51.998;10.440;2023-08-21T10:15:47;5.63;;;2.03;;
32106;SDS011;18622;51.998;10.440;2023-08-21T10:18:18;7.37;;;1.90;;
32106;SDS011;18622;51.998;10.440;2023-08-21T10:20:50;4.70;;;2.00;;
32106;SDS011;18622;51.998;10.440;2023-08-21T10:23:28;6.60;;;2.17;;
32106;SDS011;18622;51.998;10.440;2023-08-21T10:26:01;5.70;;;2.20;;
32106;SDS011;18622;51.998;10.440;2023-08-21T10:28:52;3.45;;;1.62;;
32106;SDS011;18622;51.998;10.440;2023-08-21T10:31:37;3.67;;;1.77;;
32106;SDS011;18622;51.998;10.440;2023-08-21T10:34:10;6.65;;;1.75;;
32106;SDS011;18622;51.998;10.440;2023-08-21T10:39:17;7.17;;;1.90;;
32106;SDS011;18622;51.998;10.440;2023-08-21T10:41:56;4.72;;;1.92;;
32106;SDS011;18622;51.998;10.440;2023-08-21T10:44:35;4.63;;;2.10;;
32106;SDS011;18622;51.998;10.440;2023-08-21T10:47:19;6.30;;;2.20;;
32106;SDS011;18622;51.998;10.440;2023-08-21T10:49:57;5.43;;;2.37;;
32106;SDS011;18622;51.998;10.440;2023-08-21T10:52:28;6.83;;;2.07;;
32106;SDS011;18622;51.998;10.440;2023-08-21T10:54:53;4.15;;;2.02;;
32106;SDS011;18622;51.998;10.440;2023-08-21T10:57:23;5.75;;;1.98;;
32106;SDS011;18622;51.998;10.440;2023-08-21T10:59:53;7.33;;;2.40;;
32106;SDS011;18622;51.998;10.440;2023-08-21T11:02:30;6.53;;;2.40;;
32106;SDS011;18622;51.998;10.440;2023-08-21T11:04:59;7.53;;;2.58;;
32106;SDS011;18622;51.998;10.440;2023-08-21T11:07:30;5.12;;;2.12;;
32106;SDS011;18622;51.998;10.440;2023-08-21T11:09:59;8.13;;;2.20;;
32106;SDS011;18622;51.998;10.440;2023-08-21T11:12:27;5.03;;;2.27;;
32106;SDS011;18622;51.998;10.440;2023-08-21T11:14:55;4.00;;;2.08;;
32106;SDS011;18622;51.998;10.440;2023-08-21T11:17:23;6.35;;;2.12;;
32106;SDS011;18622;51.998;10.440;2023-08-21T11:19:50;8.75;;;2.40;;
32106;SDS011;18622;51.998;10.440;2023-08-21T11:22:18;3.25;;;1.70;;
32106;SDS011;18622;51.998;10.440;2023-08-21T11:24:46;4.65;;;2.40;;
32106;SDS011;18622;51.998;10.440;2023-08-21T11:27:17;9.38;;;3.05;;
32106;SDS011;18622;51.998;10.440;2023-08-21T11:29:46;9.08;;;3.02;;
32106;SDS011;18622;51.998;10.440;2023-08-21T11:32:19;3.80;;;1.85;;
32106;SDS011;18622;51.998;10.440;2023-08-21T11:34:52;5.62;;;2.20;;
32106;SDS011;18622;51.998;10.440;2023-08-21T11:37:22;5.00;;;1.70;;
32106;SDS011;18622;51.998;10.440;2023-08-21T11:39:52;12.40;;;2.23;;
32106;SDS011;18622;51.998;10.440;2023-08-21T11:42:22;7.37;;;2.23;;
32106;SDS011;18622;51.998;10.440;2023-08-21T11:44:58;7.12;;;1.98;;
32106;SDS011;18622;51.998;10.440;2023-08-21T11:47:33;9.03;;;2.20;;
32106;SDS011;18622;51.998;10.440;2023-08-21T11:50:05;8.10;;;1.83;;
32106;SDS011;18622;51.998;10.440;2023-08-21T11:52:36;13.07;;;2.67;;
32106;SDS011;18622;51.998;10.440;2023-08-21T11:55:13;9.73;;;2.45;;
32106;SDS011;18622;51.998;10.440;2023-08-21T11:57:49;8.25;;;1.95;;
32106;SDS011;18622;51.998;10.440;2023-08-21T12:00:19;8.13;;;2.35;;
32106;SDS011;18622;51.998;10.440;2023-08-21T12:02:56;11.80;;;3.10;;
32106;SDS011;18622;51.998;10.440;2023-08-21T12:05:26;8.95;;;3.15;;
32106;SDS011;18622;51.998;10.440;2023-08-21T12:10:25;8.08;;;2.72;;
32106;SDS011;18622;51.998;10.440;2023-08-21T12:12:53;4.67;;;2.58;;
32106;SDS011;18622;51.998;10.440;2023-08-21T12:15:22;7.55;;;3.12;;
32106;SDS011;18622;51.998;10.440;2023-08-21T12:17:50;15.30;;;3.10;;
32106;SDS011;18622;51.998;10.440;2023-08-21T12:20:18;3.60;;;2.77;;
32106;SDS011;18622;51.998;10.440;2023-08-21T12:22:45;4.23;;;3.03;;
32106;SDS011;18622;51.998;10.440;2023-08-21T12:25:13;5.60;;;4.00;;
32106;SDS011;18622;51.998;10.440;2023-08-21T12:27:42;4.65;;;2.90;;
32106;SDS011;18622;51.998;10.440;2023-08-21T12:30:09;5.50;;;3.20;;
32106;SDS011;18622;51.998;10.440;2023-08-21T12:32:37;4.55;;;3.00;;
32106;SDS011;18622;51.998;10.440;2023-08-21T12:35:06;7.20;;;3.45;;
32106;SDS011;18622;51.998;10.440;2023-08-21T12:37:36;3.58;;;3.27;;
32106;SDS011;18622;51.998;10.440;2023-08-21T12:40:04;6.57;;;3.57;;
32106;SDS011;18622;51.998;10.440;2023-08-21T12:42:34;6.47;;;3.72;;
32106;SDS011;18622;51.998;10.440;2023-08-21T12:45:02;6.72;;;3.67;;
32106;SDS011;18622;51.998;10.440;2023-08-21T12:47:31;5.80;;;3.42;;
32106;SDS011;18622;51.998;10.440;2023-08-21T12:49:59;11.57;;;3.98;;
32106;SDS011;18622;51.998;10.440;2023-08-21T12:52:26;11.93;;;3.27;;
32106;SDS011;18622;51.998;10.440;2023-08-21T12:54:54;5.22;;;2.85;;
32106;SDS011;18622;51.998;10.440;2023-08-21T12:57:22;9.53;;;3.27;;
32106;SDS011;18622;51.998;10.440;2023-08-21T12:59:50;3.77;;;2.90;;
32106;SDS011;18622;51.998;10.440;2023-08-21T13:02:18;4.97;;;3.05;;
32106;SDS011;18622;51.998;10.440;2023-08-21T13:04:46;9.17;;;3.40;;
32106;SDS011;18622;51.998;10.440;2023-08-21T13:07:14;4.50;;;2.92;;
32106;SDS011;18622;51.998;10.440;2023-08-21T13:09:42;5.12;;;3.45;;
32106;SDS011;18622;51.998;10.440;2023-08-21T13:12:09;3.87;;;3.33;;
32106;SDS011;18622;51.998;10.440;2023-08-21T13:14:37;8.37;;;3.57;;
32106;SDS011;18622;51.998;10.440;2023-08-21T13:17:04;8.97;;;4.20;;
32106;SDS011;18622;51.998;10.440;2023-08-21T13:19:32;6.33;;;3.73;;
32106;SDS011;18622;51.998;10.440;2023-08-21T13:21:59;4.80;;;3.83;;
32106;SDS011;18622;51.998;10.440;2023-08-21T13:24:28;8.33;;;4.00;;
32106;SDS011;18622;51.998;10.440;2023-08-21T13:26:56;4.50;;;3.72;;
32106;SDS011;18622;51.998;10.440;2023-08-21T13:29:24;4.40;;;4.00;;
32106;SDS011;18622;51.998;10.440;2023-08-21T13:31:52;8.43;;;4.08;;
32106;SDS011;18622;51.998;10.440;2023-08-21T13:34:19;8.50;;;4.10;;
32106;SDS011;18622;51.998;10.440;2023-08-21T13:36:47;10.93;;;4.40;;
32106;SDS011;18622;51.998;10.440;2023-08-21T13:39:14;7.72;;;4.10;;
32106;SDS011;18622;51.998;10.440;2023-08-21T13:41:42;11.30;;;4.20;;
32106;SDS011;18622;51.998;10.440;2023-08-21T13:44:10;7.87;;;4.62;;
32106;SDS011;18622;51.998;10.440;2023-08-21T13:46:38;8.60;;;3.70;;
32106;SDS011;18622;51.998;10.440;2023-08-21T13:49:05;15.57;;;4.50;;
32106;SDS011;18622;51.998;10.440;2023-08-21T13:51:33;9.33;;;3.93;;
32106;SDS011;18622;51.998;10.440;2023-08-21T13:54:00;7.67;;;3.50;;
32106;SDS011;18622;51.998;10.440;2023-08-21T13:56:28;7.33;;;3.50;;
32106;SDS011;18622;51.998;10.440;2023-08-21T13:58:56;9.50;;;3.13;;
32106;SDS011;18622;51.998;10.440;2023-08-21T14:01:23;6.92;;;2.90;;
32106;SDS011;18622;51.998;10.440;2023-08-21T14:03:51;3.80;;;2.67;;
32106;SDS011;18622;51.998;10.440;2023-08-21T14:06:19;3.05;;;2.40;;
32106;SDS011;18622;51.998;10.440;2023-08-21T14:08:47;4.33;;;2.47;;
32106;SDS011;18622;51.998;10.440;2023-08-21T14:11:14;4.10;;;2.30;;
32106;SDS011;18622;51.998;10.440;2023-08-21T14:13:42;6.78;;;2.08;;
32106;SDS011;18622;51.998;10.440;2023-08-21T14:16:09;6.10;;;2.42;;
32106;SDS011;18622;51.998;10.440;2023-08-21T14:18:37;9.93;;;2.02;;
32106;SDS011;18622;51.998;10.440;2023-08-21T14:21:04;8.93;;;1.92;;
32106;SDS011;18622;51.998;10.440;2023-08-21T14:23:32;11.53;;;4.03;;
32106;SDS011;18622;51.998;10.440;2023-08-21T14:26:00;3.15;;;1.70;;
32106;SDS011;18622;51.998;10.440;2023-08-21T14:28:28;5.07;;;2.23;;
32106;SDS011;18622;51.998;10.440;2023-08-21T14:30:55;6.87;;;2.67;;
32106;SDS011;18622;51.998;10.440;2023-08-21T14:33:23;5.03;;;2.40;;
32106;SDS011;18622;51.998;10.440;2023-08-21T14:35:51;4.92;;;2.55;;
32106;SDS011;18622;51.998;10.440;2023-08-21T14:38:18;7.70;;;2.20;;
32106;SDS011;18622;51.998;10.440;2023-08-21T14:40:46;4.53;;;2.58;;
32106;SDS011;18622;51.998;10.440;2023-08-21T14:43:15;3.70;;;2.27;;
32106;SDS011;18622;51.998;10.440;2023-08-21T14:45:43;6.30;;;2.10;;
32106;SDS011;18622;51.998;10.440;2023-08-21T14:48:10;6.03;;;1.87;;
32106;SDS011;18622;51.998;10.440;2023-08-21T14:50:38;4.23;;;1.93;;
32106;SDS011;18622;51.998;10.440;2023-08-21T14:53:06;3.97;;;1.80;;
32106;SDS011;18622;51.998;10.440;2023-08-21T14:55:34;8.45;;;1.95;;
32106;SDS011;18622;51.998;10.440;2023-08-21T14:58:01;2.87;;;1.60;;
32106;SDS011;18622;51.998;10.440;2023-08-21T15:00:31;5.53;;;2.07;;
32106;SDS011;18622;51.998;10.440;2023-08-21T15:02:59;5.50;;;1.90;;
32106;SDS011;18622;51.998;10.440;2023-08-21T15:05:27;6.10;;;1.87;;
32106;SDS011;18622;51.998;10.440;2023-08-21T15:07:56;3.60;;;1.47;;
32106;SDS011;18622;51.998;10.440;2023-08-21T15:10:25;1.90;;;1.47;;
32106;SDS011;18622;51.998;10.440;2023-08-21T15:12:54;4.30;;;2.05;;
32106;SDS011;18622;51.998;10.440;2023-08-21T15:15:22;5.35;;;1.40;;
32106;SDS011;18622;51.998;10.440;2023-08-21T15:17:50;4.87;;;1.93;;
32106;SDS011;18622;51.998;10.440;2023-08-21T15:20:18;5.67;;;1.60;;
32106;SDS011;18622;51.998;10.440;2023-08-21T15:22:47;3.75;;;1.85;;
32106;SDS011;18622;51.998;10.440;2023-08-21T15:25:16;10.57;;;2.00;;
32106;SDS011;18622;51.998;10.440;2023-08-21T15:27:46;6.83;;;3.03;;
32106;SDS011;18622;51.998;10.440;2023-08-21T15:30:14;6.63;;;2.30;;
32106;SDS011;18622;51.998;10.440;2023-08-21T15:35:11;5.22;;;2.00;;
32106;SDS011;18622;51.998;10.440;2023-08-21T15:37:39;7.40;;;2.27;;
32106;SDS011;18622;51.998;10.440;2023-08-21T15:40:07;8.95;;;2.30;;
32106;SDS011;18622;51.998;10.440;2023-08-21T15:42:35;3.80;;;2.00;;
32106;SDS011;18622;51.998;10.440;2023-08-21T15:45:03;4.70;;;1.67;;
32106;SDS011;18622;51.998;10.440;2023-08-21T15:49:59;5.17;;;1.57;;
32106;SDS011;18622;51.998;10.440;2023-08-21T15:52:26;2.67;;;1.60;;
32106;SDS011;18622;51.998;10.440;2023-08-21T15:54:54;4.77;;;2.00;;
32106;SDS011;18622;51.998;10.440;2023-08-21T15:57:22;4.17;;;1.83;;
32106;SDS011;18622;51.998;10.440;2023-08-21T15:59:50;3.55;;;1.35;;
32106;SDS011;18622;51.998;10.440;2023-08-21T16:02:18;4.20;;;1.80;;
32106;SDS011;18622;51.998;10.440;2023-08-21T16:04:46;3.90;;;1.77;;
32106;SDS011;18622;51.998;10.440;2023-08-21T16:07:14;3.73;;;1.60;;
32106;SDS011;18622;51.998;10.440;2023-08-21T16:09:42;4.83;;;1.30;;
32106;SDS011;18622;51.998;10.440;2023-08-21T16:12:09;5.23;;;1.40;;
32106;SDS011;18622;51.998;10.440;2023-08-21T16:14:37;3.77;;;1.50;;
32106;SDS011;18622;51.998;10.440;2023-08-21T16:17:05;5.50;;;1.40;;
32106;SDS011;18622;51.998;10.440;2023-08-21T16:19:33;8.93;;;1.77;;
32106;SDS011;18622;51.998;10.440;2023-08-21T16:22:02;9.25;;;1.50;;
32106;SDS011;18622;51.998;10.440;2023-08-21T16:24:30;2.47;;;1.20;;
32106;SDS011;18622;51.998;10.440;2023-08-21T16:26:58;3.57;;;1.13;;
32106;SDS011;18622;51.998;10.440;2023-08-21T16:29:26;4.47;;;1.70;;
32106;SDS011;18622;51.998;10.440;2023-08-21T16:31:53;4.67;;;1.30;;
32106;SDS011;18622;51.998;10.440;2023-08-21T16:34:21;7.03;;;1.43;;
32106;SDS011;18622;51.998;10.440;2023-08-21T16:36:49;5.20;;;1.47;;
32106;SDS011;18622;51.998;10.440;2023-08-21T16:39:17;4.63;;;1.27;;
32106;SDS011;18622;51.998;10.440;2023-08-21T16:41:45;6.40;;;1.53;;
32106;SDS011;18622;51.998;10.440;2023-08-21T16:44:12;5.40;;;1.17;;
32106;SDS011;18622;51.998;10.440;2023-08-21T16:49:08;8.90;;;1.32;;
32106;SDS011;18622;51.998;10.440;2023-08-21T16:51:36;10.13;;;1.60;;
32106;SDS011;18622;51.998;10.440;2023-08-21T16:54:04;4.70;;;1.40;;
32106;SDS011;18622;51.998;10.440;2023-08-21T16:56:32;4.40;;;1.00;;
32106;SDS011;18622;51.998;10.440;2023-08-21T16:59:00;2.27;;;1.30;;
32106;SDS011;18622;51.998;10.440;2023-08-21T17:01:27;5.20;;;1.33;;
32106;SDS011;18622;51.998;10.440;2023-08-21T17:03:55;4.10;;;1.30;;
32106;SDS011;18622;51.998;10.440;2023-08-21T17:06:23;3.03;;;1.23;;
32106;SDS011;18622;51.998;10.440;2023-08-21T17:08:51;7.40;;;1.40;;
32106;SDS011;18622;51.998;10.440;2023-08-21T17:11:19;4.40;;;1.20;;
32106;SDS011;18622;51.998;10.440;2023-08-21T17:13:47;6.37;;;1.37;;
32106;SDS011;18622;51.998;10.440;2023-08-21T17:16:15;4.47;;;1.37;;
32106;SDS011;18622;51.998;10.440;2023-08-21T17:18:43;4.23;;;1.40;;
32106;SDS011;18622;51.998;10.440;2023-08-21T17:21:11;3.77;;;1.37;;
32106;SDS011;18622;51.998;10.440;2023-08-21T17:23:39;5.87;;;1.60;;
32106;SDS011;18622;51.998;10.440;2023-08-21T17:26:07;5.57;;;1.50;;
32106;SDS011;18622;51.998;10.440;2023-08-21T17:28:35;13.77;;;1.73;;
32106;SDS011;18622;51.998;10.440;2023-08-21T17:31:02;11.07;;;1.90;;
32106;SDS011;18622;51.998;10.440;2023-08-21T17:33:30;6.57;;;1.50;;
32106;SDS011;18622;51.998;10.440;2023-08-21T17:35:58;9.60;;;1.63;;
32106;SDS011;18622;51.998;10.440;2023-08-21T17:38:26;7.37;;;1.30;;
32106;SDS011;18622;51.998;10.440;2023-08-21T17:40:53;4.77;;;1.30;;
32106;SDS011;18622;51.998;10.440;2023-08-21T17:43:21;15.70;;;1.90;;
32106;SDS011;18622;51.998;10.440;2023-08-21T17:45:49;10.37;;;1.63;;
32106;SDS011;18622;51.998;10.440;2023-08-21T17:48:17;12.77;;;1.80;;
32106;SDS011;18622;51.998;10.440;2023-08-21T17:50:45;6.70;;;1.93;;
32106;SDS011;18622;51.998;10.440;2023-08-21T17:53:12;7.07;;;1.53;;
32106;SDS011;18622;51.998;10.440;2023-08-21T17:55:40;9.47;;;1.93;;
32106;SDS011;18622;51.998;10.440;2023-08-21T17:58:08;9.47;;;1.50;;
32106;SDS011;18622;51.998;10.440;2023-08-21T18:00:36;4.73;;;1.40;;
32106;SDS011;18622;51.998;10.440;2023-08-21T18:03:04;7.00;;;1.87;;
32106;SDS011;18622;51.998;10.440;2023-08-21T18:05:31;5.70;;;1.70;;
32106;SDS011;18622;51.998;10.440;2023-08-21T18:07:59;4.47;;;1.33;;
32106;SDS011;18622;51.998;10.440;2023-08-21T18:10:28;11.10;;;1.60;;
32106;SDS011;18622;51.998;10.440;2023-08-21T18:12:59;9.88;;;1.50;;
32106;SDS011;18622;51.998;10.440;2023-08-21T18:15:29;14.07;;;1.77;;
32106;SDS011;18622;51.998;10.440;2023-08-21T18:17:59;6.47;;;1.27;;
32106;SDS011;18622;51.998;10.440;2023-08-21T18:20:46;9.57;;;1.70;;
32106;SDS011;18622;51.998;10.440;2023-08-21T18:23:19;14.33;;;1.77;;
32106;SDS011;18622;51.998;10.440;2023-08-21T18:25:49;5.20;;;1.12;;
32106;SDS011;18622;51.998;10.440;2023-08-21T18:28:19;6.03;;;1.12;;
32106;SDS011;18622;51.998;10.440;2023-08-21T18:30:51;10.67;;;1.77;;
32106;SDS011;18622;51.998;10.440;2023-08-21T18:33:21;9.17;;;1.40;;